Stanton, Nebraska
Current Conditions -  °F | °C
As of 11:56 AM on Thursday 18 Dec 2014 (Local Time) from KOFK Reporting Station
Overcast Overcast  
Wind Chill: 22°   Ceiling: 1200
Heat Index: 28°   Visibility: 10mi
Dew Point: 23°   Wind: 6mph
Humidity: 81%   Direction: 200°SSW
Pressure: 30.18"   Gusts: NA
Location:  41.95°N, 97.22°W
Report Text: KOFK 181756Z AUTO 20005KT 10SM BKN012 OVC023 M02/M05 A3018 RMK AO2 SLP239 60000 T10221050 11022 21044 58006
Loading
Personal Weather Stations






























Interactive Weather Map New forecast layout! Learn more

10-Day Weather Forecast

Advertisements
Track Severe Weather on mobile